createdAt,value
2019-01-05T00:02:29.995Z,5.05
2019-01-05T00:05:19.968Z,5.06
2019-01-05T00:08:06.636Z,5.09
2019-01-05T00:10:57.363Z,5.20
2019-01-05T00:13:54.306Z,5.20
2019-01-05T00:16:45.657Z,5.15
2019-01-05T00:19:46.300Z,5.16
2019-01-05T00:22:37.159Z,5.16
2019-01-05T00:25:27.890Z,5.20
2019-01-05T00:28:24.811Z,5.18
2019-01-05T00:31:23.195Z,5.21
2019-01-05T00:34:28.048Z,5.20
2019-01-05T00:37:23.393Z,5.21
2019-01-05T00:40:21.042Z,5.22
2019-01-05T00:43:14.951Z,5.21
2019-01-05T00:46:05.958Z,5.27
2019-01-05T00:48:57.706Z,5.21
2019-01-05T00:52:11.341Z,5.20
2019-01-05T00:55:02.740Z,5.16
2019-01-05T00:57:55.804Z,5.18
2019-01-05T01:00:46.966Z,5.24
2019-01-05T01:03:43.603Z,5.26
2019-01-05T01:06:42.113Z,5.23
2019-01-05T01:09:31.664Z,5.26
2019-01-05T01:12:22.538Z,5.33
2019-01-05T01:15:11.896Z,5.29
2019-01-05T01:18:02.643Z,5.31
2019-01-05T01:20:50.468Z,5.28
2019-01-05T01:23:40.327Z,5.30
2019-01-05T01:26:29.482Z,5.35
2019-01-05T01:29:23.665Z,5.38
2019-01-05T01:32:26.323Z,5.44
2019-01-05T01:35:17.232Z,5.38
2019-01-05T01:39:04.895Z,5.38
2019-01-05T01:42:11.864Z,5.40
2019-01-05T01:45:05.909Z,5.44
2019-01-05T01:47:52.515Z,5.42
2019-01-05T01:50:42.664Z,5.39
2019-01-05T01:53:41.715Z,5.43
2019-01-05T01:56:33.938Z,5.40
2019-01-05T01:59:29.816Z,5.45
2019-01-05T02:02:33.241Z,5.41
2019-01-05T02:05:42.854Z,5.42
2019-01-05T02:08:41.112Z,5.46
2019-01-05T02:11:38.273Z,5.45
2019-01-05T02:14:45.876Z,5.44
2019-01-05T02:18:16.526Z,5.43
2019-01-05T02:22:05.488Z,5.44
2019-01-05T02:26:02.302Z,5.44
2019-01-05T02:30:02.292Z,5.47
2019-01-05T02:34:15.082Z,5.50
2019-01-05T02:38:12.707Z,5.48
2019-01-05T02:42:01.620Z,5.48
2019-01-05T02:45:44.709Z,5.58
2019-01-05T02:49:40.459Z,5.54
2019-01-05T02:53:42.352Z,5.63
2019-01-05T02:57:45.205Z,5.65
2019-01-05T03:01:58.320Z,5.66
2019-01-05T03:05:28.559Z,5.61
2019-01-05T03:09:43.641Z,5.65
2019-01-05T03:13:31.177Z,5.64
2019-01-05T03:17:30.566Z,5.76
2019-01-05T03:21:14.433Z,5.70
2019-01-05T03:25:06.847Z,5.74
2019-01-05T03:29:25.662Z,5.78
2019-01-05T03:33:04.235Z,5.75
2019-01-05T03:36:46.352Z,5.82
2019-01-05T03:40:56.254Z,5.80
2019-01-05T03:44:37.451Z,5.82
2019-01-05T03:48:29.042Z,5.77
2019-01-05T03:52:07.653Z,5.82
2019-01-05T03:56:16.830Z,5.82
2019-01-05T03:59:52.878Z,5.81
2019-01-05T04:04:04.820Z,5.91
2019-01-05T04:07:58.261Z,5.87
2019-01-05T04:11:44.826Z,5.88
2019-01-05T04:15:55.509Z,5.93
2019-01-05T04:19:58.010Z,5.90
2019-01-05T04:23:47.299Z,5.91
2019-01-05T04:27:44.176Z,5.90
2019-01-05T04:31:16.931Z,5.92
2019-01-05T04:35:22.328Z,5.94
2019-01-05T04:39:03.395Z,5.94
2019-01-05T04:42:55.490Z,5.95
2019-01-05T04:46:43.736Z,5.97
2019-01-05T04:50:28.092Z,6.02
2019-01-05T04:54:40.965Z,6.01
2019-01-05T04:58:12.023Z,6.03
2019-01-05T05:01:48.803Z,6.07
2019-01-05T05:05:45.712Z,6.05
2019-01-05T05:09:20.005Z,6.09
2019-01-05T05:12:55.569Z,6.13
2019-01-05T05:16:38.999Z,6.12
2019-01-05T05:20:06.932Z,6.14
2019-01-05T05:24:15.859Z,6.18
2019-01-05T05:28:02.158Z,6.18
2019-01-05T05:32:05.612Z,6.24
2019-01-05T05:36:18.346Z,6.31
2019-01-05T05:40:22.480Z,6.32
2019-01-05T05:44:44.514Z,6.31
2019-01-05T05:48:23.394Z,6.39
2019-01-05T05:52:07.209Z,6.38
2019-01-05T05:55:49.481Z,6.51
2019-01-05T05:59:25.431Z,6.48
2019-01-05T06:03:06.928Z,6.51
2019-01-05T06:07:08.093Z,6.57
2019-01-05T06:11:16.524Z,6.65
2019-01-05T06:15:15.833Z,6.75
2019-01-05T06:18:54.581Z,6.69
2019-01-05T06:23:07.645Z,6.76
2019-01-05T06:27:01.484Z,6.78
2019-01-05T06:30:52.789Z,6.77
2019-01-05T06:34:43.929Z,6.77
2019-01-05T06:38:18.098Z,6.80
2019-01-05T06:42:22.602Z,6.86
2019-01-05T06:46:35.459Z,6.92
2019-01-05T06:50:33.273Z,6.84
2019-01-05T06:54:35.604Z,6.91
2019-01-05T06:58:19.841Z,6.90
2019-01-05T07:02:14.747Z,6.94
2019-01-05T07:06:13.634Z,6.90
2019-01-05T07:10:22.816Z,6.89
2019-01-05T07:14:22.369Z,6.94
2019-01-05T07:18:30.987Z,6.87
2019-01-05T07:22:46.555Z,6.97
2019-01-05T07:26:31.637Z,6.92
2019-01-05T07:30:14.796Z,6.96
2019-01-05T07:34:01.034Z,6.92
2019-01-05T07:37:52.081Z,6.91
2019-01-05T07:42:00.557Z,6.86
2019-01-05T07:45:30.853Z,6.85
2019-01-05T07:49:30.163Z,6.90
2019-01-05T07:53:42.429Z,6.82
2019-01-05T07:57:43.967Z,6.88
2019-01-05T08:01:36.252Z,6.84
2019-01-05T08:05:23.127Z,6.83
2019-01-05T08:09:07.473Z,6.92
2019-01-05T08:12:48.710Z,6.95
2019-01-05T08:17:17.134Z,6.87
2019-01-05T08:21:08.301Z,6.87
2019-01-05T08:24:55.963Z,6.89
2019-01-05T08:28:51.589Z,6.93
2019-01-05T08:32:56.561Z,6.89
2019-01-05T08:36:56.170Z,6.86
2019-01-05T08:40:41.057Z,6.95
2019-01-05T08:45:06.149Z,6.93
2019-01-05T08:48:40.031Z,6.94
2019-01-05T08:52:06.582Z,6.90
2019-01-05T08:56:04.871Z,6.89
2019-01-05T08:59:49.547Z,6.94
2019-01-05T09:03:55.815Z,7.01
2019-01-05T09:08:06.052Z,7.05
2019-01-05T09:11:43.467Z,7.11
2019-01-05T09:16:10.634Z,7.13
2019-01-05T09:20:02.368Z,7.15
2019-01-05T09:24:10.398Z,7.16
2019-01-05T09:27:58.236Z,7.19
2019-01-05T09:31:56.394Z,7.19
2019-01-05T09:36:08.471Z,7.17
2019-01-05T09:40:17.623Z,7.17
2019-01-05T09:44:21.551Z,7.26
2019-01-05T09:48:04.839Z,7.22
2019-01-05T09:52:09.710Z,7.23
2019-01-05T09:56:09.927Z,7.29
2019-01-05T09:59:42.212Z,7.29
2019-01-05T10:03:54.109Z,7.26
2019-01-05T10:08:03.401Z,7.26
2019-01-05T10:12:02.721Z,7.23
2019-01-05T10:15:45.196Z,7.26
2019-01-05T10:19:19.857Z,7.31
2019-01-05T10:22:58.588Z,7.26
2019-01-05T10:27:12.195Z,7.25
2019-01-05T10:31:04.230Z,7.32
2019-01-05T10:34:53.069Z,7.27
2019-01-05T10:38:51.688Z,7.31
2019-01-05T10:42:43.359Z,7.33
2019-01-05T10:46:37.292Z,7.30
2019-01-05T10:50:32.498Z,7.28
2019-01-05T10:54:06.479Z,7.29
2019-01-05T10:57:53.114Z,7.32
2019-01-05T11:01:40.687Z,7.32
2019-01-05T11:05:40.622Z,7.33
2019-01-05T11:09:13.836Z,7.35
2019-01-05T11:13:11.999Z,7.38
2019-01-05T11:16:54.019Z,7.33
2019-01-05T11:20:49.729Z,7.40
2019-01-05T11:24:36.581Z,7.33
2019-01-05T11:28:21.587Z,7.37
2019-01-05T11:32:15.401Z,7.35
2019-01-05T11:36:08.116Z,7.37
2019-01-05T11:43:48.589Z,7.35
2019-01-05T11:47:45.627Z,7.45
2019-01-05T11:51:51.238Z,7.43
2019-01-05T11:55:36.520Z,7.44
2019-01-05T11:59:14.249Z,7.46
2019-01-05T12:03:36.347Z,7.43
2019-01-05T12:07:53.741Z,7.56
2019-01-05T12:11:55.750Z,7.54
2019-01-05T12:15:42.255Z,7.49
2019-01-05T12:24:04.483Z,7.48
2019-01-05T12:27:56.648Z,7.51
2019-01-05T12:32:11.077Z,7.55
2019-01-05T12:36:07.420Z,7.46
2019-01-05T12:40:14.454Z,7.57
2019-01-05T12:43:54.396Z,7.47
2019-01-05T12:48:04.392Z,7.50
2019-01-05T12:51:57.473Z,7.49
2019-01-05T12:56:16.323Z,7.48
2019-01-05T13:00:15.095Z,7.55
2019-01-05T13:04:45.678Z,7.53
2019-01-05T13:08:22.759Z,7.53
2019-01-05T13:12:08.055Z,7.54
2019-01-05T13:15:52.457Z,7.53
2019-01-05T13:19:51.549Z,7.46
2019-01-05T13:23:52.908Z,7.46
2019-01-05T13:27:43.055Z,7.41
2019-01-05T13:31:45.405Z,7.39
2019-01-05T13:35:21.783Z,7.39
2019-01-05T13:39:16.058Z,7.42
2019-01-05T13:43:07.430Z,7.37
2019-01-05T13:46:52.745Z,7.39
2019-01-05T13:50:49.579Z,7.38
2019-01-05T13:54:06.875Z,7.35
2019-01-05T13:57:19.711Z,7.36
2019-01-05T14:00:21.212Z,7.43
2019-01-05T14:03:13.626Z,7.37
2019-01-05T14:06:04.460Z,7.32
2019-01-05T14:08:54.008Z,7.29
2019-01-05T14:12:02.780Z,7.30
2019-01-05T14:14:53.876Z,7.30
2019-01-05T14:17:44.504Z,7.26
2019-01-05T14:20:47.295Z,7.28
2019-01-05T14:23:45.532Z,7.23
2019-01-05T14:26:36.615Z,7.20
2019-01-05T14:29:35.497Z,7.23
2019-01-05T14:32:35.500Z,7.27
2019-01-05T14:35:31.515Z,7.23
2019-01-05T14:38:31.152Z,7.18
2019-01-05T14:41:17.684Z,7.17
2019-01-05T14:44:06.451Z,7.12
2019-01-05T14:47:00.362Z,7.12
2019-01-05T14:49:54.925Z,7.15
2019-01-05T14:52:40.519Z,7.09
2019-01-05T14:55:43.268Z,7.10
2019-01-05T14:58:49.010Z,7.09
2019-01-05T15:01:38.279Z,7.07
2019-01-05T15:04:32.233Z,7.11
2019-01-05T15:07:22.146Z,7.05
2019-01-05T15:10:11.734Z,7.10
2019-01-05T15:13:05.347Z,7.05
2019-01-05T15:15:59.025Z,7.09
2019-01-05T15:18:55.774Z,7.04
2019-01-05T15:21:42.335Z,7.05
2019-01-05T15:24:31.772Z,7.04
2019-01-05T15:27:25.508Z,7.03
2019-01-05T15:30:14.890Z,6.99
2019-01-05T15:33:04.147Z,6.91
2019-01-05T15:36:01.238Z,6.97
2019-01-05T15:38:52.058Z,6.94
2019-01-05T15:41:46.763Z,6.91
2019-01-05T15:44:33.761Z,6.94
2019-01-05T15:47:23.194Z,6.95
2019-01-05T15:50:12.288Z,6.92
2019-01-05T15:53:18.305Z,6.84
2019-01-05T15:56:07.259Z,6.87
2019-01-05T15:58:59.484Z,6.98
2019-01-05T16:01:48.931Z,6.86
2019-01-05T16:04:44.480Z,6.81
2019-01-05T16:07:39.234Z,6.81
2019-01-05T16:14:44.412Z,6.81
2019-01-05T16:17:50.469Z,6.89
2019-01-05T16:21:01.685Z,6.95
2019-01-05T16:24:01.597Z,6.85
2019-01-05T16:26:58.899Z,6.80
2019-01-05T16:29:56.796Z,6.80
2019-01-05T16:32:46.716Z,6.77
2019-01-05T16:35:35.871Z,6.81
2019-01-05T16:38:22.269Z,6.94
2019-01-05T16:41:31.063Z,6.90
2019-01-05T16:44:42.355Z,6.86
2019-01-05T16:47:38.993Z,6.85
2019-01-05T16:50:28.497Z,6.86
2019-01-05T16:53:15.080Z,6.84
2019-01-05T16:56:05.901Z,6.82
2019-01-05T16:58:55.447Z,6.83
2019-01-05T17:01:45.230Z,6.76
2019-01-05T17:04:39.271Z,6.78
2019-01-05T17:07:28.604Z,6.77
2019-01-05T17:10:17.963Z,6.77
2019-01-05T17:13:07.595Z,6.79
2019-01-05T17:16:07.923Z,6.84
2019-01-05T17:19:03.309Z,6.80
2019-01-05T17:21:56.907Z,6.74
2019-01-05T17:24:46.118Z,6.78
2019-01-05T17:27:35.322Z,6.79
2019-01-05T17:30:25.296Z,6.78
2019-01-05T17:33:14.511Z,6.80
2019-01-05T17:36:05.304Z,6.85
2019-01-05T17:38:50.343Z,6.76
2019-01-05T17:41:43.907Z,6.78
2019-01-05T17:44:38.196Z,6.85
2019-01-05T17:47:27.450Z,6.76
2019-01-05T17:50:30.279Z,6.72
2019-01-05T17:53:24.132Z,6.72
2019-01-05T17:56:27.064Z,6.76
2019-01-05T17:59:28.992Z,6.77
2019-01-05T18:02:37.683Z,6.77
2019-01-05T18:05:34.423Z,6.74
2019-01-05T18:08:43.234Z,6.79
2019-01-05T18:11:36.364Z,6.78
2019-01-05T18:14:22.483Z,6.73
2019-01-05T18:17:16.130Z,6.78
2019-01-05T18:20:19.132Z,6.77
2019-01-05T18:23:22.208Z,6.80
2019-01-05T18:26:29.393Z,6.84
2019-01-05T18:29:29.472Z,6.81
2019-01-05T18:32:32.374Z,6.80
2019-01-05T18:35:22.453Z,6.77
2019-01-05T18:38:11.951Z,6.76
2019-01-05T18:41:14.976Z,6.75
2019-01-05T18:44:04.431Z,6.73
2019-01-05T18:46:53.933Z,6.72
2019-01-05T18:49:56.958Z,6.73
2019-01-05T18:52:47.994Z,6.73
2019-01-05T18:55:37.500Z,6.76
2019-01-05T18:58:29.161Z,6.71
2019-01-05T19:01:38.104Z,6.67
2019-01-05T19:04:40.740Z,6.68
2019-01-05T19:07:30.182Z,6.67
2019-01-05T19:10:21.042Z,6.62
2019-01-05T19:13:14.847Z,6.68
2019-01-05T19:16:20.743Z,6.72
2019-01-05T19:19:07.249Z,6.66
2019-01-05T19:22:03.970Z,6.66
2019-01-05T19:24:53.633Z,6.70
2019-01-05T19:27:43.191Z,6.67
2019-01-05T19:30:32.752Z,6.66
2019-01-05T19:33:35.916Z,6.65
2019-01-05T19:36:25.165Z,6.63
2019-01-05T19:39:14.831Z,6.65
2019-01-05T19:42:17.780Z,6.68
2019-01-05T19:45:07.479Z,6.68
2019-01-05T19:47:57.523Z,6.67
2019-01-05T19:50:47.152Z,6.65
2019-01-05T19:53:36.685Z,6.68
2019-01-05T19:56:27.996Z,6.69
2019-01-05T19:59:17.633Z,6.63
2019-01-05T20:02:09.038Z,6.63
2019-01-05T20:05:09.687Z,6.63
2019-01-05T20:08:15.673Z,6.71
2019-01-05T20:11:17.420Z,6.69
2019-01-05T20:14:11.774Z,6.72
2019-01-05T20:17:02.724Z,6.65
2019-01-05T20:19:48.105Z,6.66
2019-01-05T20:22:37.640Z,6.66
2019-01-05T20:25:37.555Z,6.64
2019-01-05T20:28:28.740Z,6.65
2019-01-05T20:31:17.989Z,6.77
2019-01-05T20:34:09.153Z,6.77
2019-01-05T20:37:03.653Z,6.78
2019-01-05T20:39:55.832Z,6.75
2019-01-05T20:43:01.908Z,6.81
2019-01-05T20:45:51.129Z,6.73
2019-01-05T20:48:42.236Z,6.75
2019-01-05T20:51:31.431Z,6.73
2019-01-05T20:54:31.430Z,6.70
2019-01-05T20:57:33.382Z,6.67
2019-01-05T21:00:30.670Z,6.64
2019-01-05T21:03:24.288Z,6.65
2019-01-05T21:06:15.056Z,6.68
2019-01-05T21:09:05.834Z,6.66
2019-01-05T21:11:55.103Z,6.63
2019-01-05T21:14:48.449Z,6.67
2019-01-05T21:17:40.297Z,6.61
2019-01-05T21:20:37.225Z,6.64
2019-01-05T21:23:26.402Z,6.64
2019-01-05T21:26:24.374Z,6.62
2019-01-05T21:29:09.930Z,6.59
2019-01-05T21:31:59.411Z,6.58
2019-01-05T21:35:04.936Z,6.58
2019-01-05T21:38:04.701Z,6.64
2019-01-05T21:41:13.371Z,6.61
2019-01-05T21:44:13.011Z,6.65
2019-01-05T21:47:02.623Z,6.61
2019-01-05T21:50:01.537Z,6.61
2019-01-05T21:52:50.984Z,6.65
2019-01-05T21:55:41.712Z,6.67
2019-01-05T21:58:32.494Z,6.67
2019-01-05T22:01:24.212Z,6.62
2019-01-05T22:04:26.962Z,6.64
2019-01-05T22:07:23.625Z,6.63
2019-01-05T22:10:13.221Z,6.70
2019-01-05T22:13:10.146Z,6.62
2019-01-05T22:16:12.988Z,6.60
2019-01-05T22:19:06.561Z,6.61
2019-01-05T22:21:56.109Z,6.63
2019-01-05T22:24:45.574Z,6.64
2019-01-05T22:27:25.310Z,6.59
2019-01-05T22:30:21.993Z,6.67
2019-01-05T22:33:24.738Z,6.63
2019-01-05T22:36:13.930Z,6.64
2019-01-05T22:39:00.251Z,6.65
2019-01-05T22:42:01.033Z,6.67
2019-01-05T22:44:50.699Z,6.63
2019-01-05T22:47:35.645Z,6.63
2019-01-05T22:50:25.427Z,6.61
2019-01-05T22:53:32.759Z,6.66
2019-01-05T22:56:33.417Z,6.62
2019-01-05T22:59:24.721Z,6.62
2019-01-05T23:02:08.357Z,6.59
2019-01-05T23:05:11.488Z,6.58
2019-01-05T23:08:00.955Z,6.62
2019-01-05T23:10:50.424Z,6.60
2019-01-05T23:13:41.181Z,6.64
2019-01-05T23:16:29.575Z,6.60
2019-01-05T23:19:26.087Z,6.58
2019-01-05T23:22:33.181Z,6.55
2019-01-05T23:25:24.413Z,6.58
2019-01-05T23:28:18.478Z,6.58
2019-01-05T23:31:09.321Z,6.56
2019-01-05T23:34:05.821Z,6.56
2019-01-05T23:37:05.624Z,6.56
2019-01-05T23:39:56.538Z,6.54
2019-01-05T23:42:51.915Z,6.55
2019-01-05T23:45:41.444Z,6.49
2019-01-05T23:48:30.792Z,6.47
2019-01-05T23:51:21.615Z,6.46
2019-01-05T23:54:12.892Z,6.45
2019-01-05T23:57:03.649Z,6.42
2019-01-05T23:59:54.945Z,6.42
